Time,TemperatureF,DewpointF,PressureIn,WindDirection,WindDirectionDegrees,WindSpeedMPH,WindSpeedGustMPH,Humidity,HourlyPrecipIn,Conditions,Clouds,dailyrainin,SolarRadiationWatts/m^2,SoftwareType,DateUTC
2013-06-14 00:08:00,79.2,74.3,29.91,North,-999,0.0,0.0,85,0.00,,,-99.99,0,WeatherLink 5.4,2013-06-14 04:08:00,
2013-06-14 00:10:00,79.2,74.3,29.91,North,-999,0.0,0.0,85,0.00,,,-99.99,0,WeatherLink 5.4,2013-06-14 04:10:00,
2013-06-14 00:12:00,79.2,74.3,29.91,North,-999,0.0,0.0,85,0.00,,,-99.99,0,WeatherLink 5.4,2013-06-14 04:12:00,
2013-06-14 00:13:00,79.2,74.3,29.91,North,-999,0.0,0.0,85,0.00,,,-99.99,0,WeatherLink 5.4,2013-06-14 04:13:00,
2013-06-14 00:19:00,79.2,74.3,29.91,North,-999,0.0,0.0,85,0.00,,,-99.99,0,WeatherLink 5.4,2013-06-14 04:19:00,
2013-06-14 00:20:00,79.1,74.2,29.90,North,-999,0.0,0.0,85,0.00,,,-99.99,0,WeatherLink 5.4,2013-06-14 04:20:00,
2013-06-14 00:25:00,79.1,74.2,29.90,North,-999,0.0,0.0,85,0.00,,,-99.99,0,WeatherLink 5.4,2013-06-14 04:25:00,
2013-06-14 00:31:00,79.0,74.1,29.89,North,-999,0.0,0.0,85,0.00,,,-99.99,0,WeatherLink 5.4,2013-06-14 04:31:00,
2013-06-14 00:37:00,79.0,74.1,29.89,North,-999,0.0,0.0,85,0.00,,,-99.99,0,WeatherLink 5.4,2013-06-14 04:37:00,
2013-06-14 00:42:00,79.0,74.1,29.89,North,-999,0.0,0.0,85,0.00,,,-99.99,0,WeatherLink 5.4,2013-06-14 04:42:00,
2013-06-14 00:48:00,79.0,74.1,29.89,North,-999,0.0,0.0,85,0.00,,,-99.99,0,WeatherLink 5.4,2013-06-14 04:48:00,
2013-06-14 00:53:00,78.9,74.4,29.88,North,-999,0.0,0.0,86,0.00,,,-99.99,0,WeatherLink 5.4,2013-06-14 04:53:00,
2013-06-14 00:58:00,78.9,74.4,29.88,North,-999,0.0,0.0,86,0.00,,,-99.99,0,WeatherLink 5.4,2013-06-14 04:58:00,
2013-06-14 01:03:00,78.8,74.3,29.88,North,-999,0.0,0.0,86,0.00,,,-99.99,0,WeatherLink 5.4,2013-06-14 05:03:00,
2013-06-14 01:08:00,78.8,74.3,29.88,North,-999,0.0,0.0,86,0.00,,,-99.99,0,WeatherLink 5.4,2013-06-14 05:08:00,
2013-06-14 01:14:00,78.6,74.4,29.88,North,-999,0.0,0.0,87,0.00,,,-99.99,0,WeatherLink 5.4,2013-06-14 05:14:00,
2013-06-14 01:20:00,78.6,74.4,29.88,North,-999,0.0,0.0,87,0.00,,,-99.99,0,WeatherLink 5.4,2013-06-14 05:20:00,
2013-06-14 01:26:00,78.6,74.4,29.88,North,-999,0.0,0.0,87,0.00,,,-99.99,0,WeatherLink 5.4,2013-06-14 05:26:00,
2013-06-14 01:32:00,78.5,74.3,29.87,North,-999,0.0,0.0,87,0.00,,,-99.99,0,WeatherLink 5.4,2013-06-14 05:32:00,
2013-06-14 01:37:00,78.5,74.3,29.87,North,-999,0.0,0.0,87,0.00,,,-99.99,0,WeatherLink 5.4,2013-06-14 05:37:00,
2013-06-14 01:43:00,78.5,74.6,29.87,North,-999,0.0,0.0,88,0.00,,,-99.99,0,WeatherLink 5.4,2013-06-14 05:43:00,
2013-06-14 01:49:00,78.5,74.6,29.87,North,-999,0.0,0.0,88,0.00,,,-99.99,0,WeatherLink 5.4,2013-06-14 05:49:00,
2013-06-14 01:55:00,78.6,74.7,29.88,North,-999,0.0,0.0,88,0.00,,,-99.99,0,WeatherLink 5.4,2013-06-14 05:55:00,
2013-06-14 02:01:00,78.5,74.6,29.87,ESE,112,0.0,1.0,88,0.01,,,-99.99,0,WeatherLink 5.4,2013-06-14 06:01:00,
2013-06-14 02:07:00,78.5,74.6,29.87,ESE,112,0.0,1.0,88,0.01,,,-99.99,0,WeatherLink 5.4,2013-06-14 06:07:00,
2013-06-14 02:12:00,78.4,74.5,29.87,North,-999,0.0,0.0,88,0.01,,,-99.99,0,WeatherLink 5.4,2013-06-14 06:12:00,
2013-06-14 02:17:00,78.4,74.5,29.87,North,-999,0.0,0.0,88,0.01,,,-99.99,0,WeatherLink 5.4,2013-06-14 06:17:00,
2013-06-14 02:22:00,78.2,74.4,29.87,North,-999,0.0,0.0,88,0.01,,,-99.99,0,WeatherLink 5.4,2013-06-14 06:22:00,
2013-06-14 02:28:00,78.2,74.4,29.87,North,-999,0.0,0.0,88,0.01,,,-99.99,0,WeatherLink 5.4,2013-06-14 06:28:00,
2013-06-14 02:33:00,78.1,74.3,29.86,ENE,67,0.0,1.0,88,0.01,,,-99.99,0,WeatherLink 5.4,2013-06-14 06:33:00,
2013-06-14 02:39:00,78.1,74.3,29.86,ENE,67,0.0,1.0,88,0.01,,,-99.99,0,WeatherLink 5.4,2013-06-14 06:39:00,
2013-06-14 02:45:00,78.1,74.3,29.86,ESE,112,0.0,5.0,88,0.01,,,-99.99,0,WeatherLink 5.4,2013-06-14 06:45:00,
2013-06-14 02:51:00,78.1,74.6,29.87,ESE,112,0.0,1.0,89,0.01,,,-99.99,0,WeatherLink 5.4,2013-06-14 06:51:00,
2013-06-14 02:57:00,78.1,74.6,29.87,ESE,112,0.0,1.0,89,0.01,,,-99.99,0,WeatherLink 5.4,2013-06-14 06:57:00,
2013-06-14 03:03:00,78.1,74.6,29.86,ESE,112,0.0,7.0,89,0.00,,,-99.99,0,WeatherLink 5.4,2013-06-14 07:03:00,
2013-06-14 03:09:00,78.1,74.6,29.86,ESE,112,0.0,7.0,89,0.00,,,-99.99,0,WeatherLink 5.4,2013-06-14 07:09:00,
2013-06-14 03:14:00,78.0,74.5,29.86,North,-999,0.0,0.0,89,0.01,,,-99.99,0,WeatherLink 5.4,2013-06-14 07:14:00,
2013-06-14 03:19:00,77.8,74.3,29.85,ESE,112,0.0,5.0,89,0.01,,,-99.99,0,WeatherLink 5.4,2013-06-14 07:19:00,
2013-06-14 03:24:00,77.8,74.3,29.85,ESE,112,0.0,5.0,89,0.01,,,-99.99,0,WeatherLink 5.4,2013-06-14 07:24:00,
2013-06-14 03:29:00,77.8,74.3,29.85,ESE,112,0.0,5.0,89,0.01,,,-99.99,0,WeatherLink 5.4,2013-06-14 07:29:00,
2013-06-14 03:34:00,77.7,74.2,29.85,ESE,112,0.0,6.0,89,0.01,,,-99.99,0,WeatherLink 5.4,2013-06-14 07:34:00,
2013-06-14 03:40:00,77.7,74.2,29.85,North,-999,0.0,0.0,89,0.01,,,-99.99,0,WeatherLink 5.4,2013-06-14 07:40:00,
2013-06-14 03:46:00,77.7,74.2,29.85,North,-999,0.0,0.0,89,0.01,,,-99.99,0,WeatherLink 5.4,2013-06-14 07:46:00,
2013-06-14 03:51:00,77.7,74.2,29.85,East,90,0.0,1.0,89,0.01,,,-99.99,0,WeatherLink 5.4,2013-06-14 07:51:00,
2013-06-14 03:57:00,77.7,74.2,29.85,East,90,0.0,1.0,89,0.01,,,-99.99,0,WeatherLink 5.4,2013-06-14 07:57:00,
2013-06-14 04:03:00,77.6,74.4,29.86,North,-999,0.0,0.0,90,0.02,,,-99.99,0,WeatherLink 5.4,2013-06-14 08:03:00,
2013-06-14 04:09:00,77.6,74.4,29.86,North,-999,0.0,0.0,90,0.02,,,-99.99,0,WeatherLink 5.4,2013-06-14 08:09:00,
2013-06-14 04:14:00,77.6,74.4,29.86,North,-999,0.0,0.0,90,0.02,,,-99.99,0,WeatherLink 5.4,2013-06-14 08:14:00,
2013-06-14 04:20:00,77.6,74.8,29.85,North,-999,0.0,0.0,91,0.06,,,-99.99,0,WeatherLink 5.4,2013-06-14 08:20:00,
2013-06-14 04:26:00,77.6,74.8,29.85,North,-999,0.0,0.0,91,0.06,,,-99.99,0,WeatherLink 5.4,2013-06-14 08:26:00,
2013-06-14 04:32:00,77.6,74.8,29.85,North,-999,0.0,0.0,91,0.07,,,-99.99,0,WeatherLink 5.4,2013-06-14 08:32:00,
2013-06-14 04:37:00,77.6,74.8,29.85,North,-999,0.0,0.0,91,0.07,,,-99.99,0,WeatherLink 5.4,2013-06-14 08:37:00,
2013-06-14 04:42:00,77.6,74.8,29.85,North,-999,0.0,0.0,91,0.07,,,-99.99,0,WeatherLink 5.4,2013-06-14 08:42:00,
2013-06-14 04:48:00,77.6,74.8,29.85,North,-999,0.0,0.0,91,0.07,,,-99.99,0,WeatherLink 5.4,2013-06-14 08:48:00,
2013-06-14 04:53:00,77.4,74.9,29.86,North,-999,0.0,0.0,92,0.07,,,-99.99,0,WeatherLink 5.4,2013-06-14 08:53:00,
2013-06-14 04:58:00,77.4,74.9,29.86,North,-999,0.0,0.0,92,0.07,,,-99.99,0,WeatherLink 5.4,2013-06-14 08:58:00,
2013-06-14 05:03:00,77.4,74.9,29.86,North,-999,0.0,0.0,92,0.06,,,-99.99,0,WeatherLink 5.4,2013-06-14 09:03:00,
2013-06-14 05:08:00,77.4,74.9,29.86,North,-999,0.0,0.0,92,0.06,,,-99.99,0,WeatherLink 5.4,2013-06-14 09:08:00,
2013-06-14 05:14:00,77.4,74.9,29.86,North,-999,0.0,0.0,92,0.05,,,-99.99,0,WeatherLink 5.4,2013-06-14 09:14:00,
2013-06-14 05:20:00,77.3,74.8,29.86,North,-999,0.0,0.0,92,0.01,,,-99.99,0,WeatherLink 5.4,2013-06-14 09:20:00,
2013-06-14 05:25:00,77.3,74.8,29.86,North,-999,0.0,0.0,92,0.01,,,-99.99,0,WeatherLink 5.4,2013-06-14 09:25:00,
2013-06-14 05:30:00,77.2,74.7,29.86,North,-999,0.0,0.0,92,0.00,,,-99.99,0,WeatherLink 5.4,2013-06-14 09:30:00,
2013-06-14 05:35:00,77.2,74.7,29.86,North,-999,0.0,0.0,92,0.00,,,-99.99,0,WeatherLink 5.4,2013-06-14 09:35:00,
2013-06-14 05:41:00,77.2,74.7,29.86,North,-999,0.0,0.0,92,0.00,,,-99.99,0,WeatherLink 5.4,2013-06-14 09:41:00,
2013-06-14 05:47:00,77.2,74.7,29.86,North,-999,0.0,0.0,92,0.00,,,-99.99,0,WeatherLink 5.4,2013-06-14 09:47:00,
2013-06-14 05:53:00,77.0,74.5,29.86,North,-999,0.0,0.0,92,0.00,,,-99.99,0,WeatherLink 5.4,2013-06-14 09:53:00,
2013-06-14 05:58:00,77.0,74.5,29.86,North,-999,0.0,0.0,92,0.00,,,-99.99,0,WeatherLink 5.4,2013-06-14 09:58:00,
2013-06-14 06:04:00,77.0,74.5,29.86,North,-999,0.0,0.0,92,0.00,,,-99.99,5,WeatherLink 5.4,2013-06-14 10:04:00,
2013-06-14 06:09:00,77.0,74.5,29.86,North,-999,0.0,0.0,92,0.00,,,-99.99,5,WeatherLink 5.4,2013-06-14 10:09:00,
2013-06-14 06:14:00,77.0,74.5,29.86,North,-999,0.0,0.0,92,0.00,,,-99.99,11,WeatherLink 5.4,2013-06-14 10:14:00,
2013-06-14 06:19:00,77.0,74.5,29.86,North,-999,0.0,0.0,92,0.00,,,-99.99,11,WeatherLink 5.4,2013-06-14 10:19:00,
2013-06-14 06:25:00,77.0,74.5,29.86,North,-999,0.0,0.0,92,0.00,,,-99.99,14,WeatherLink 5.4,2013-06-14 10:25:00,
2013-06-14 06:31:00,77.0,74.5,29.87,North,-999,0.0,0.0,92,0.00,,,-99.99,14,WeatherLink 5.4,2013-06-14 10:31:00,
2013-06-14 06:37:00,77.0,74.5,29.87,North,-999,0.0,0.0,92,0.00,,,-99.99,14,WeatherLink 5.4,2013-06-14 10:37:00,
2013-06-14 06:42:00,77.0,74.5,29.87,North,-999,0.0,0.0,92,0.00,,,-99.99,15,WeatherLink 5.4,2013-06-14 10:42:00,
2013-06-14 06:48:00,77.0,74.5,29.87,North,-999,0.0,0.0,92,0.00,,,-99.99,15,WeatherLink 5.4,2013-06-14 10:48:00,
2013-06-14 06:54:00,76.8,74.6,29.88,North,-999,0.0,0.0,93,0.00,,,-99.99,34,WeatherLink 5.4,2013-06-14 10:54:00,
2013-06-14 06:59:00,76.8,74.6,29.88,North,-999,0.0,0.0,93,0.00,,,-99.99,34,WeatherLink 5.4,2013-06-14 10:59:00,
2013-06-14 07:05:00,76.9,74.7,29.88,North,-999,0.0,0.0,93,0.00,,,-99.99,85,WeatherLink 5.4,2013-06-14 11:05:00,
2013-06-14 07:10:00,77.1,74.9,29.88,North,-999,0.0,0.0,93,0.00,,,-99.99,169,WeatherLink 5.4,2013-06-14 11:10:00,
2013-06-14 07:16:00,77.1,74.9,29.88,North,-999,0.0,0.0,93,0.00,,,-99.99,169,WeatherLink 5.4,2013-06-14 11:16:00,
2013-06-14 07:21:00,77.6,75.4,29.88,North,-999,0.0,0.0,93,0.00,,,-99.99,277,WeatherLink 5.4,2013-06-14 11:21:00,
2013-06-14 07:27:00,77.6,75.4,29.88,North,-999,0.0,0.0,93,0.00,,,-99.99,277,WeatherLink 5.4,2013-06-14 11:27:00,
2013-06-14 07:33:00,77.7,75.5,29.89,North,-999,0.0,0.0,93,0.00,,,-99.99,236,WeatherLink 5.4,2013-06-14 11:33:00,
2013-06-14 07:39:00,77.7,75.5,29.89,North,-999,0.0,0.0,93,0.00,,,-99.99,236,WeatherLink 5.4,2013-06-14 11:39:00,
2013-06-14 07:45:00,77.9,75.4,29.89,North,-999,0.0,0.0,92,0.00,,,-99.99,113,WeatherLink 5.4,2013-06-14 11:45:00,
2013-06-14 07:50:00,78.1,75.6,29.89,North,-999,0.0,0.0,92,0.00,,,-99.99,99,WeatherLink 5.4,2013-06-14 11:50:00,
2013-06-14 07:56:00,78.1,75.6,29.89,North,-999,0.0,0.0,92,0.00,,,-99.99,99,WeatherLink 5.4,2013-06-14 11:56:00,
2013-06-14 08:02:00,78.1,75.6,29.89,North,-999,0.0,0.0,92,0.01,,,-99.99,101,WeatherLink 5.4,2013-06-14 12:02:00,
2013-06-14 08:07:00,78.1,75.6,29.89,North,-999,0.0,0.0,92,0.01,,,-99.99,101,WeatherLink 5.4,2013-06-14 12:07:00,
2013-06-14 08:13:00,78.3,75.8,29.89,North,-999,0.0,0.0,92,0.01,,,-99.99,242,WeatherLink 5.4,2013-06-14 12:13:00,
2013-06-14 08:18:00,78.3,75.8,29.89,North,-999,0.0,0.0,92,0.01,,,-99.99,242,WeatherLink 5.4,2013-06-14 12:18:00,
2013-06-14 08:24:00,78.6,76.1,29.89,North,-999,0.0,0.0,92,0.02,,,-99.99,438,WeatherLink 5.4,2013-06-14 12:24:00,
2013-06-14 08:30:00,79.1,76.2,29.89,North,-999,0.0,0.0,91,0.02,,,-99.99,371,WeatherLink 5.4,2013-06-14 12:30:00,
2013-06-14 08:36:00,79.1,76.2,29.89,North,-999,0.0,0.0,91,0.02,,,-99.99,371,WeatherLink 5.4,2013-06-14 12:36:00,
2013-06-14 08:42:00,79.6,76.4,29.89,North,-999,0.0,0.0,90,0.02,,,-99.99,423,WeatherLink 5.4,2013-06-14 12:42:00,
2013-06-14 08:47:00,79.6,76.4,29.89,North,-999,0.0,0.0,90,0.02,,,-99.99,423,WeatherLink 5.4,2013-06-14 12:47:00,
2013-06-14 08:53:00,79.9,76.4,29.89,North,-999,0.0,0.0,89,0.02,,,-99.99,266,WeatherLink 5.4,2013-06-14 12:53:00,
2013-06-14 08:59:00,80.3,76.4,29.89,SE,135,0.0,1.0,88,0.01,,,-99.99,88,WeatherLink 5.4,2013-06-14 12:59:00,
2013-06-14 09:05:00,80.3,76.4,29.89,SE,135,0.0,1.0,88,0.01,,,-99.99,88,WeatherLink 5.4,2013-06-14 13:05:00,
2013-06-14 09:11:00,80.3,76.4,29.89,North,-999,0.0,0.0,88,0.03,,,-99.99,81,WeatherLink 5.4,2013-06-14 13:11:00,
2013-06-14 09:17:00,80.3,76.4,29.89,North,-999,0.0,0.0,88,0.03,,,-99.99,81,WeatherLink 5.4,2013-06-14 13:17:00,
2013-06-14 09:23:00,80.6,76.7,29.88,North,-999,0.0,0.0,88,0.02,,,-99.99,454,WeatherLink 5.4,2013-06-14 13:23:00,
2013-06-14 09:29:00,80.8,76.9,29.88,North,-999,0.0,0.0,88,0.02,,,-99.99,211,WeatherLink 5.4,2013-06-14 13:29:00,
2013-06-14 09:35:00,80.8,76.9,29.88,North,-999,0.0,0.0,88,0.02,,,-99.99,211,WeatherLink 5.4,2013-06-14 13:35:00,
2013-06-14 09:41:00,81.1,76.9,29.88,SSE,157,0.0,1.0,87,0.02,,,-99.99,123,WeatherLink 5.4,2013-06-14 13:41:00,
2013-06-14 09:46:00,81.1,76.9,29.88,SSE,157,0.0,1.0,87,0.02,,,-99.99,123,WeatherLink 5.4,2013-06-14 13:46:00,
2013-06-14 09:51:00,81.2,77.0,29.88,North,-999,0.0,0.0,87,0.02,,,-99.99,295,WeatherLink 5.4,2013-06-14 13:51:00,
2013-06-14 09:57:00,81.2,77.0,29.88,North,-999,0.0,0.0,87,0.02,,,-99.99,295,WeatherLink 5.4,2013-06-14 13:57:00,
2013-06-14 10:03:00,81.5,75.5,29.88,ESE,112,2.0,8.0,82,0.02,,,-99.99,357,WeatherLink 5.4,2013-06-14 14:03:00,
2013-06-14 10:09:00,81.5,75.5,29.88,ESE,112,2.0,8.0,82,0.02,,,-99.99,357,WeatherLink 5.4,2013-06-14 14:09:00,
2013-06-14 10:14:00,82.1,74.2,29.88,SE,135,3.0,17.0,77,0.01,,,-99.99,355,WeatherLink 5.4,2013-06-14 14:14:00,
2013-06-14 10:20:00,83.2,74.8,29.88,ESE,112,4.0,12.0,76,0.01,,,-99.99,637,WeatherLink 5.4,2013-06-14 14:20:00,
2013-06-14 10:26:00,83.2,74.8,29.88,ESE,112,4.0,12.0,76,0.01,,,-99.99,637,WeatherLink 5.4,2013-06-14 14:26:00,
2013-06-14 10:32:00,84.2,74.2,29.88,ESE,112,5.0,14.0,72,0.01,,,-99.99,861,WeatherLink 5.4,2013-06-14 14:32:00,
2013-06-14 10:38:00,84.2,74.2,29.88,ESE,112,5.0,14.0,72,0.01,,,-99.99,861,WeatherLink 5.4,2013-06-14 14:38:00,
2013-06-14 10:44:00,85.1,74.6,29.88,ESE,112,7.0,13.0,71,0.01,,,-99.99,881,WeatherLink 5.4,2013-06-14 14:44:00,
2013-06-14 10:49:00,85.1,74.6,29.88,ESE,112,7.0,13.0,71,0.01,,,-99.99,881,WeatherLink 5.4,2013-06-14 14:49:00,
2013-06-14 10:54:00,85.8,74.9,29.88,ESE,112,4.0,18.0,70,0.01,,,-99.99,903,WeatherLink 5.4,2013-06-14 14:54:00,
2013-06-14 11:00:00,86.1,74.3,29.88,ESE,112,7.0,18.0,68,0.01,,,-99.99,825,WeatherLink 5.4,2013-06-14 15:00:00,
2013-06-14 11:06:00,86.1,74.3,29.88,ESE,112,7.0,18.0,68,0.01,,,-99.99,825,WeatherLink 5.4,2013-06-14 15:06:00,
2013-06-14 11:11:00,86.3,74.0,29.88,ESE,112,7.0,17.0,67,0.00,,,-99.99,836,WeatherLink 5.4,2013-06-14 15:11:00,
2013-06-14 11:16:00,86.3,74.0,29.88,ESE,112,7.0,17.0,67,0.00,,,-99.99,836,WeatherLink 5.4,2013-06-14 15:16:00,
2013-06-14 11:22:00,86.5,74.2,29.88,ESE,112,5.0,18.0,67,0.00,,,-99.99,864,WeatherLink 5.4,2013-06-14 15:22:00,
2013-06-14 11:27:00,86.5,74.2,29.88,ESE,112,5.0,18.0,67,0.00,,,-99.99,864,WeatherLink 5.4,2013-06-14 15:27:00,
2013-06-14 11:33:00,86.7,73.5,29.88,SE,135,8.0,19.0,65,0.00,,,-99.99,912,WeatherLink 5.4,2013-06-14 15:33:00,
2013-06-14 11:38:00,86.7,73.5,29.88,SE,135,8.0,19.0,65,0.00,,,-99.99,912,WeatherLink 5.4,2013-06-14 15:38:00,
2013-06-14 11:44:00,86.9,73.3,29.88,SE,135,1.0,14.0,64,0.00,,,-99.99,531,WeatherLink 5.4,2013-06-14 15:44:00,
2013-06-14 11:50:00,87.3,73.6,29.87,SE,135,5.0,14.0,64,0.00,,,-99.99,900,WeatherLink 5.4,2013-06-14 15:50:00,
2013-06-14 11:55:00,87.3,73.6,29.87,SE,135,5.0,14.0,64,0.00,,,-99.99,900,WeatherLink 5.4,2013-06-14 15:55:00,
2013-06-14 12:01:00,87.4,73.7,29.87,East,90,5.0,14.0,64,0.00,,,-99.99,951,WeatherLink 5.4,2013-06-14 16:01:00,
2013-06-14 12:06:00,87.4,73.7,29.87,East,90,5.0,14.0,64,0.00,,,-99.99,951,WeatherLink 5.4,2013-06-14 16:06:00,
2013-06-14 12:12:00,87.7,72.6,29.87,ESE,112,6.0,13.0,61,0.00,,,-99.99,948,WeatherLink 5.4,2013-06-14 16:12:00,
2013-06-14 12:18:00,87.7,72.6,29.87,ESE,112,6.0,13.0,61,0.00,,,-99.99,948,WeatherLink 5.4,2013-06-14 16:18:00,
2013-06-14 12:24:00,88.0,72.4,29.86,ESE,112,4.0,14.0,60,0.00,,,-99.99,917,WeatherLink 5.4,2013-06-14 16:24:00,
2013-06-14 12:29:00,88.2,72.6,29.86,ESE,112,4.0,11.0,60,0.00,,,-99.99,900,WeatherLink 5.4,2013-06-14 16:29:00,
2013-06-14 12:34:00,88.2,72.6,29.86,ESE,112,4.0,11.0,60,0.00,,,-99.99,900,WeatherLink 5.4,2013-06-14 16:34:00,
2013-06-14 12:40:00,88.2,73.0,29.86,ESE,112,7.0,18.0,61,0.00,,,-99.99,773,WeatherLink 5.4,2013-06-14 16:40:00,
2013-06-14 12:45:00,88.2,73.0,29.86,ESE,112,7.0,18.0,61,0.00,,,-99.99,773,WeatherLink 5.4,2013-06-14 16:45:00,
2013-06-14 12:50:00,88.0,72.9,29.86,ESE,112,5.0,16.0,61,0.00,,,-99.99,844,WeatherLink 5.4,2013-06-14 16:50:00,
2013-06-14 12:56:00,88.0,72.9,29.86,ESE,112,5.0,16.0,61,0.00,,,-99.99,844,WeatherLink 5.4,2013-06-14 16:56:00,
2013-06-14 13:02:00,88.3,72.2,29.86,ESE,112,5.0,17.0,59,0.00,,,-99.99,871,WeatherLink 5.4,2013-06-14 17:02:00,
2013-06-14 13:08:00,88.3,72.2,29.86,ESE,112,5.0,17.0,59,0.00,,,-99.99,871,WeatherLink 5.4,2013-06-14 17:08:00,
2013-06-14 13:14:00,88.6,72.9,29.86,ESE,112,3.0,13.0,60,0.00,,,-99.99,914,WeatherLink 5.4,2013-06-14 17:14:00,
2013-06-14 13:19:00,88.9,73.2,29.85,ESE,112,7.0,17.0,60,0.00,,,-99.99,912,WeatherLink 5.4,2013-06-14 17:19:00,
2013-06-14 13:24:00,88.9,73.2,29.85,ESE,112,7.0,17.0,60,0.00,,,-99.99,912,WeatherLink 5.4,2013-06-14 17:24:00,
2013-06-14 13:30:00,88.6,73.4,29.85,ESE,112,6.0,16.0,61,0.00,,,-99.99,863,WeatherLink 5.4,2013-06-14 17:30:00,
2013-06-14 13:36:00,88.6,73.4,29.85,ESE,112,6.0,16.0,61,0.00,,,-99.99,863,WeatherLink 5.4,2013-06-14 17:36:00,
2013-06-14 13:42:00,88.6,72.4,29.85,ESE,112,4.0,18.0,59,0.00,,,-99.99,867,WeatherLink 5.4,2013-06-14 17:42:00,
2013-06-14 13:47:00,88.6,72.4,29.85,ESE,112,4.0,18.0,59,0.00,,,-99.99,867,WeatherLink 5.4,2013-06-14 17:47:00,
2013-06-14 13:53:00,88.7,72.5,29.84,ESE,112,9.0,18.0,59,0.00,,,-99.99,899,WeatherLink 5.4,2013-06-14 17:53:00,
2013-06-14 13:58:00,88.7,72.5,29.84,ESE,112,9.0,18.0,59,0.00,,,-99.99,899,WeatherLink 5.4,2013-06-14 17:58:00,
2013-06-14 14:03:00,88.5,72.8,29.83,SE,135,6.0,14.0,60,0.00,,,-99.99,873,WeatherLink 5.4,2013-06-14 18:03:00,
2013-06-14 14:09:00,88.5,72.8,29.83,SE,135,6.0,14.0,60,0.00,,,-99.99,873,WeatherLink 5.4,2013-06-14 18:09:00,
2013-06-14 14:15:00,88.7,73.0,29.83,ESE,112,8.0,17.0,60,0.00,,,-99.99,864,WeatherLink 5.4,2013-06-14 18:15:00,
2013-06-14 14:21:00,88.6,72.9,29.83,ESE,112,4.0,12.0,60,0.00,,,-99.99,744,WeatherLink 5.4,2013-06-14 18:21:00,
2013-06-14 14:26:00,88.6,72.9,29.83,ESE,112,4.0,12.0,60,0.00,,,-99.99,744,WeatherLink 5.4,2013-06-14 18:26:00,
2013-06-14 14:32:00,88.7,72.5,29.83,ESE,112,7.0,14.0,59,0.00,,,-99.99,637,WeatherLink 5.4,2013-06-14 18:32:00,
2013-06-14 14:38:00,88.7,72.5,29.83,ESE,112,7.0,14.0,59,0.00,,,-99.99,637,WeatherLink 5.4,2013-06-14 18:38:00,
2013-06-14 14:44:00,88.5,72.8,29.83,ESE,112,4.0,14.0,60,0.00,,,-99.99,603,WeatherLink 5.4,2013-06-14 18:44:00,
2013-06-14 14:50:00,88.5,72.8,29.83,ESE,112,6.0,14.0,60,0.00,,,-99.99,615,WeatherLink 5.4,2013-06-14 18:50:00,
2013-06-14 14:55:00,88.5,72.8,29.83,ESE,112,6.0,14.0,60,0.00,,,-99.99,615,WeatherLink 5.4,2013-06-14 18:55:00,
2013-06-14 15:00:00,88.1,72.5,29.83,SE,135,6.0,17.0,60,0.00,,,-99.99,541,WeatherLink 5.4,2013-06-14 19:00:00,
2013-06-14 15:06:00,88.1,72.5,29.83,SE,135,6.0,17.0,60,0.00,,,-99.99,541,WeatherLink 5.4,2013-06-14 19:06:00,
2013-06-14 15:11:00,87.7,72.1,29.83,SE,135,6.0,14.0,60,0.00,,,-99.99,520,WeatherLink 5.4,2013-06-14 19:11:00,
2013-06-14 15:16:00,87.7,72.1,29.83,SE,135,6.0,14.0,60,0.00,,,-99.99,520,WeatherLink 5.4,2013-06-14 19:16:00,
2013-06-14 15:22:00,87.8,71.2,29.83,SE,135,3.0,13.0,58,0.00,,,-99.99,626,WeatherLink 5.4,2013-06-14 19:22:00,
2013-06-14 15:28:00,87.8,71.2,29.83,SE,135,3.0,13.0,58,0.00,,,-99.99,626,WeatherLink 5.4,2013-06-14 19:28:00,
2013-06-14 15:33:00,88.1,72.5,29.83,ESE,112,3.0,13.0,60,0.00,,,-99.99,548,WeatherLink 5.4,2013-06-14 19:33:00,
2013-06-14 15:39:00,88.1,72.5,29.83,ESE,112,3.0,13.0,60,0.00,,,-99.99,548,WeatherLink 5.4,2013-06-14 19:39:00,
2013-06-14 15:45:00,88.1,72.5,29.83,ESE,112,4.0,12.0,60,0.00,,,-99.99,580,WeatherLink 5.4,2013-06-14 19:45:00,
2013-06-14 15:50:00,88.0,72.9,29.83,SE,135,3.0,11.0,61,0.00,,,-99.99,564,WeatherLink 5.4,2013-06-14 19:50:00,
2013-06-14 15:56:00,88.0,72.9,29.83,SE,135,3.0,11.0,61,0.00,,,-99.99,564,WeatherLink 5.4,2013-06-14 19:56:00,
2013-06-14 16:02:00,88.0,72.9,29.82,ESE,112,3.0,13.0,61,0.00,,,-99.99,504,WeatherLink 5.4,2013-06-14 20:02:00,
2013-06-14 16:08:00,88.0,72.9,29.82,ESE,112,3.0,13.0,61,0.00,,,-99.99,504,WeatherLink 5.4,2013-06-14 20:08:00,
2013-06-14 16:14:00,87.6,73.0,29.82,ESE,112,5.0,13.0,62,0.00,,,-99.99,479,WeatherLink 5.4,2013-06-14 20:14:00,
2013-06-14 16:20:00,87.4,71.8,29.83,ESE,112,3.0,12.0,60,0.00,,,-99.99,509,WeatherLink 5.4,2013-06-14 20:20:00,
2013-06-14 16:26:00,87.4,71.8,29.83,ESE,112,3.0,12.0,60,0.00,,,-99.99,509,WeatherLink 5.4,2013-06-14 20:26:00,
2013-06-14 16:31:00,87.4,72.3,29.83,East,90,3.0,13.0,61,0.00,,,-99.99,462,WeatherLink 5.4,2013-06-14 20:31:00,
2013-06-14 16:36:00,87.4,72.3,29.83,East,90,3.0,13.0,61,0.00,,,-99.99,462,WeatherLink 5.4,2013-06-14 20:36:00,
2013-06-14 16:41:00,87.5,71.9,29.83,ESE,112,1.0,10.0,60,0.00,,,-99.99,392,WeatherLink 5.4,2013-06-14 20:41:00,
2013-06-14 16:47:00,87.5,71.9,29.83,ESE,112,1.0,10.0,60,0.00,,,-99.99,392,WeatherLink 5.4,2013-06-14 20:47:00,
2013-06-14 16:52:00,87.5,71.9,29.83,SE,135,4.0,13.0,60,0.00,,,-99.99,363,WeatherLink 5.4,2013-06-14 20:52:00,
2013-06-14 16:58:00,87.5,71.9,29.83,SE,135,4.0,13.0,60,0.00,,,-99.99,363,WeatherLink 5.4,2013-06-14 20:58:00,
2013-06-14 17:04:00,87.4,72.3,29.83,ESE,112,3.0,10.0,61,0.00,,,-99.99,372,WeatherLink 5.4,2013-06-14 21:04:00,
2013-06-14 17:09:00,87.2,73.1,29.83,ESE,112,5.0,13.0,63,0.00,,,-99.99,293,WeatherLink 5.4,2013-06-14 21:09:00,
2013-06-14 17:15:00,87.2,73.1,29.83,ESE,112,5.0,13.0,63,0.00,,,-99.99,293,WeatherLink 5.4,2013-06-14 21:15:00,
2013-06-14 17:20:00,86.7,72.6,29.83,ESE,112,4.0,11.0,63,0.00,,,-99.99,238,WeatherLink 5.4,2013-06-14 21:20:00,
2013-06-14 17:25:00,86.7,72.6,29.83,ESE,112,4.0,11.0,63,0.00,,,-99.99,238,WeatherLink 5.4,2013-06-14 21:25:00,
2013-06-14 17:33:00,86.4,72.8,29.83,ESE,112,2.0,11.0,64,0.00,,,-99.99,217,WeatherLink 5.4,2013-06-14 21:33:00,
2013-06-14 17:38:00,86.4,72.8,29.83,ESE,112,2.0,11.0,64,0.00,,,-99.99,217,WeatherLink 5.4,2013-06-14 21:38:00,
2013-06-14 17:43:00,86.4,72.8,29.83,ESE,112,4.0,14.0,64,0.00,,,-99.99,145,WeatherLink 5.4,2013-06-14 21:43:00,
2013-06-14 17:48:00,86.4,72.8,29.83,ESE,112,4.0,14.0,64,0.00,,,-99.99,145,WeatherLink 5.4,2013-06-14 21:48:00,
2013-06-14 17:54:00,86.0,71.9,29.84,ESE,112,3.0,14.0,63,0.00,,,-99.99,107,WeatherLink 5.4,2013-06-14 21:54:00,
2013-06-14 17:59:00,85.7,72.6,29.84,ESE,112,4.0,11.0,65,0.00,,,-99.99,74,WeatherLink 5.4,2013-06-14 21:59:00,
2013-06-14 18:04:00,85.7,72.6,29.84,ESE,112,4.0,11.0,65,0.00,,,-99.99,74,WeatherLink 5.4,2013-06-14 22:04:00,
2013-06-14 18:10:00,85.5,72.8,29.84,ESE,112,0.0,7.0,66,0.00,,,-99.99,74,WeatherLink 5.4,2013-06-14 22:10:00,
2013-06-14 18:15:00,85.5,72.8,29.84,ESE,112,0.0,7.0,66,0.00,,,-99.99,74,WeatherLink 5.4,2013-06-14 22:15:00,
2013-06-14 18:20:00,85.3,73.1,29.84,North,-999,0.0,0.0,67,0.00,,,-99.99,96,WeatherLink 5.4,2013-06-14 22:20:00,
2013-06-14 18:26:00,85.3,73.1,29.84,North,-999,0.0,0.0,67,0.00,,,-99.99,96,WeatherLink 5.4,2013-06-14 22:26:00,
2013-06-14 18:32:00,85.2,73.4,29.85,ESE,112,3.0,11.0,68,0.00,,,-99.99,75,WeatherLink 5.4,2013-06-14 22:32:00,
2013-06-14 18:38:00,85.2,73.4,29.85,ESE,112,3.0,11.0,68,0.00,,,-99.99,75,WeatherLink 5.4,2013-06-14 22:38:00,
2013-06-14 18:44:00,84.8,73.5,29.85,ESE,112,3.0,10.0,69,0.00,,,-99.99,53,WeatherLink 5.4,2013-06-14 22:44:00,
2013-06-14 18:50:00,84.6,73.7,29.85,ESE,112,4.0,10.0,70,0.00,,,-99.99,29,WeatherLink 5.4,2013-06-14 22:50:00,
2013-06-14 18:56:00,84.6,73.7,29.85,ESE,112,4.0,10.0,70,0.00,,,-99.99,29,WeatherLink 5.4,2013-06-14 22:56:00,
2013-06-14 19:02:00,84.3,73.4,29.86,ESE,112,3.0,8.0,70,0.00,,,-99.99,11,WeatherLink 5.4,2013-06-14 23:02:00,
2013-06-14 19:07:00,84.3,73.4,29.86,ESE,112,3.0,8.0,70,0.00,,,-99.99,11,WeatherLink 5.4,2013-06-14 23:07:00,
2013-06-14 19:12:00,84.1,73.7,29.86,ESE,112,1.0,7.0,71,0.00,,,-99.99,1,WeatherLink 5.4,2013-06-14 23:12:00,
2013-06-14 19:17:00,84.1,73.7,29.86,ESE,112,1.0,7.0,71,0.00,,,-99.99,1,WeatherLink 5.4,2013-06-14 23:17:00,
2013-06-14 19:23:00,84.0,73.6,29.86,ESE,112,2.0,8.0,71,0.00,,,-99.99,0,WeatherLink 5.4,2013-06-14 23:23:00,
2013-06-14 19:28:00,84.0,73.6,29.86,ESE,112,2.0,8.0,71,0.00,,,-99.99,0,WeatherLink 5.4,2013-06-14 23:28:00,
2013-06-14 19:34:00,83.8,73.4,29.86,ESE,112,2.0,8.0,71,0.00,,,-99.99,0,WeatherLink 5.4,2013-06-14 23:34:00,
2013-06-14 19:39:00,83.8,73.4,29.86,ESE,112,2.0,8.0,71,0.00,,,-99.99,0,WeatherLink 5.4,2013-06-14 23:39:00,
2013-06-14 19:44:00,83.6,73.2,29.86,ESE,112,1.0,10.0,71,0.00,,,-99.99,0,WeatherLink 5.4,2013-06-14 23:44:00,
2013-06-14 19:50:00,83.4,73.0,29.87,ESE,112,1.0,8.0,71,0.00,,,-99.99,0,WeatherLink 5.4,2013-06-14 23:50:00,
2013-06-14 19:55:00,83.4,73.0,29.87,ESE,112,1.0,8.0,71,0.00,,,-99.99,0,WeatherLink 5.4,2013-06-14 23:55:00,
2013-06-14 20:00:00,83.3,72.9,29.87,ESE,112,3.0,11.0,71,0.00,,,-99.99,0,WeatherLink 5.4,2013-06-15 00:00:00,
2013-06-14 20:06:00,83.3,72.9,29.87,ESE,112,3.0,11.0,71,0.00,,,-99.99,0,WeatherLink 5.4,2013-06-15 00:06:00,
2013-06-14 20:12:00,83.2,72.8,29.87,ESE,112,2.0,10.0,71,0.00,,,-99.99,0,WeatherLink 5.4,2013-06-15 00:12:00,
2013-06-14 20:17:00,83.2,72.8,29.87,ESE,112,2.0,10.0,71,0.00,,,-99.99,0,WeatherLink 5.4,2013-06-15 00:17:00,
2013-06-14 20:22:00,83.0,72.6,29.88,ESE,112,3.0,10.0,71,0.00,,,-99.99,0,WeatherLink 5.4,2013-06-15 00:22:00,
2013-06-14 20:28:00,83.0,72.6,29.88,ESE,112,3.0,10.0,71,0.00,,,-99.99,0,WeatherLink 5.4,2013-06-15 00:28:00,
2013-06-14 20:33:00,82.9,72.9,29.88,ESE,112,2.0,8.0,72,0.00,,,-99.99,0,WeatherLink 5.4,2013-06-15 00:33:00,
2013-06-14 20:38:00,82.9,72.9,29.88,ESE,112,2.0,8.0,72,0.00,,,-99.99,0,WeatherLink 5.4,2013-06-15 00:38:00,
2013-06-14 20:44:00,82.8,72.8,29.88,ESE,112,0.0,5.0,72,0.00,,,-99.99,0,WeatherLink 5.4,2013-06-15 00:44:00,
2013-06-14 20:50:00,82.8,72.8,29.89,ESE,112,0.0,2.0,72,0.00,,,-99.99,0,WeatherLink 5.4,2013-06-15 00:50:00,
2013-06-14 20:56:00,82.8,72.8,29.89,ESE,112,0.0,2.0,72,0.00,,,-99.99,0,WeatherLink 5.4,2013-06-15 00:56:00,
2013-06-14 21:02:00,82.6,72.7,29.89,SE,135,2.0,8.0,72,0.00,,,-99.99,0,WeatherLink 5.4,2013-06-15 01:02:00,
2013-06-14 21:08:00,82.6,72.7,29.89,SE,135,2.0,8.0,72,0.00,,,-99.99,0,WeatherLink 5.4,2013-06-15 01:08:00,
2013-06-14 21:13:00,82.4,72.5,29.89,ESE,112,0.0,6.0,72,0.00,,,-99.99,0,WeatherLink 5.4,2013-06-15 01:13:00,
2013-06-14 21:18:00,82.4,72.5,29.89,ESE,112,0.0,6.0,72,0.00,,,-99.99,0,WeatherLink 5.4,2013-06-15 01:18:00,
2013-06-14 21:24:00,82.4,72.5,29.89,ESE,112,0.0,6.0,72,0.00,,,-99.99,0,WeatherLink 5.4,2013-06-15 01:24:00,
2013-06-14 21:30:00,82.3,72.4,29.89,ESE,112,1.0,5.0,72,0.00,,,-99.99,0,WeatherLink 5.4,2013-06-15 01:30:00,
2013-06-14 21:35:00,82.3,72.4,29.89,ESE,112,1.0,5.0,72,0.00,,,-99.99,0,WeatherLink 5.4,2013-06-15 01:35:00,
2013-06-14 21:41:00,82.2,72.3,29.89,ESE,112,0.0,1.0,72,0.00,,,-99.99,0,WeatherLink 5.4,2013-06-15 01:41:00,
2013-06-14 21:46:00,82.2,72.3,29.89,ESE,112,0.0,1.0,72,0.00,,,-99.99,0,WeatherLink 5.4,2013-06-15 01:46:00,
2013-06-14 21:51:00,82.2,72.7,29.89,North,-999,0.0,0.0,73,0.00,,,-99.99,0,WeatherLink 5.4,2013-06-15 01:51:00,
2013-06-14 21:57:00,82.2,72.7,29.89,North,-999,0.0,0.0,73,0.00,,,-99.99,0,WeatherLink 5.4,2013-06-15 01:57:00,
2013-06-14 22:02:00,82.2,73.1,29.89,North,-999,0.0,0.0,74,0.00,,,-99.99,0,WeatherLink 5.4,2013-06-15 02:02:00,
2013-06-14 22:08:00,82.2,73.1,29.89,North,-999,0.0,0.0,74,0.00,,,-99.99,0,WeatherLink 5.4,2013-06-15 02:08:00,
2013-06-14 22:13:00,82.0,72.9,29.89,North,-999,0.0,0.0,74,0.00,,,-99.99,0,WeatherLink 5.4,2013-06-15 02:13:00,
2013-06-14 22:18:00,82.0,72.9,29.89,North,-999,0.0,0.0,74,0.00,,,-99.99,0,WeatherLink 5.4,2013-06-15 02:18:00,
2013-06-14 22:23:00,81.8,73.1,29.89,North,-999,0.0,0.0,75,0.00,,,-99.99,0,WeatherLink 5.4,2013-06-15 02:23:00,
2013-06-14 22:29:00,81.8,73.1,29.89,North,-999,0.0,0.0,75,0.00,,,-99.99,0,WeatherLink 5.4,2013-06-15 02:29:00,
2013-06-14 22:34:00,81.6,72.9,29.90,North,-999,0.0,0.0,75,0.00,,,-99.99,0,WeatherLink 5.4,2013-06-15 02:34:00,
2013-06-14 22:39:00,81.6,72.9,29.90,North,-999,0.0,0.0,75,0.00,,,-99.99,0,WeatherLink 5.4,2013-06-15 02:39:00,
2013-06-14 22:44:00,81.6,72.9,29.90,SE,135,0.0,1.0,75,0.00,,,-99.99,0,WeatherLink 5.4,2013-06-15 02:44:00,
2013-06-14 22:50:00,81.4,72.7,29.89,SE,135,0.0,1.0,75,0.00,,,-99.99,0,WeatherLink 5.4,2013-06-15 02:50:00,
2013-06-14 22:55:00,81.4,72.7,29.89,SE,135,0.0,1.0,75,0.00,,,-99.99,0,WeatherLink 5.4,2013-06-15 02:55:00,
2013-06-14 23:00:00,81.4,73.1,29.89,North,-999,0.0,0.0,76,0.00,,,-99.99,0,WeatherLink 5.4,2013-06-15 03:00:00,
2013-06-14 23:05:00,81.4,73.1,29.89,North,-999,0.0,0.0,76,0.00,,,-99.99,0,WeatherLink 5.4,2013-06-15 03:05:00,
2013-06-14 23:11:00,81.2,72.9,29.89,North,-999,0.0,0.0,76,0.00,,,-99.99,0,WeatherLink 5.4,2013-06-15 03:11:00,
2013-06-14 23:17:00,81.2,72.9,29.89,North,-999,0.0,0.0,76,0.00,,,-99.99,0,WeatherLink 5.4,2013-06-15 03:17:00,
2013-06-14 23:22:00,81.1,73.2,29.90,SE,135,0.0,1.0,77,0.00,,,-99.99,0,WeatherLink 5.4,2013-06-15 03:22:00,
2013-06-14 23:28:00,81.1,73.2,29.90,SE,135,0.0,1.0,77,0.00,,,-99.99,0,WeatherLink 5.4,2013-06-15 03:28:00,
2013-06-14 23:34:00,81.1,73.2,29.90,North,-999,0.0,0.0,77,0.00,,,-99.99,0,WeatherLink 5.4,2013-06-15 03:34:00,
2013-06-14 23:40:00,81.1,73.2,29.90,North,-999,0.0,0.0,77,0.00,,,-99.99,0,WeatherLink 5.4,2013-06-15 03:40:00,
2013-06-14 23:46:00,81.1,73.2,29.90,North,-999,0.0,0.0,77,0.00,,,-99.99,0,WeatherLink 5.4,2013-06-15 03:46:00,
2013-06-14 23:52:00,81.1,73.2,29.89,North,-999,0.0,0.0,77,0.00,,,-99.99,0,WeatherLink 5.4,2013-06-15 03:52:00,
2013-06-14 23:58:00,81.1,73.2,29.89,North,-999,0.0,0.0,77,0.00,,,-99.99,0,WeatherLink 5.4,2013-06-15 03:58:00,